createdAt,value
2022-10-29T00:02:22.638Z,29.15
2022-10-29T00:04:50.250Z,30.45
2022-10-29T00:07:17.629Z,30.02
2022-10-29T00:09:44.910Z,30.75
2022-10-29T00:12:12.493Z,29.35
2022-10-29T00:14:39.770Z,30.40
2022-10-29T00:17:07.057Z,27.25
2022-10-29T00:19:34.635Z,28.08
2022-10-29T00:22:02.083Z,28.20
2022-10-29T00:24:29.372Z,27.85
2022-10-29T00:26:56.924Z,29.35
2022-10-29T00:29:24.264Z,28.95
2022-10-29T00:31:51.675Z,28.10
2022-10-29T00:34:19.302Z,27.90
2022-10-29T00:36:46.601Z,29.30
2022-10-29T00:39:17.212Z,29.23
2022-10-29T00:41:44.814Z,27.87
2022-10-29T00:44:14.932Z,30.90
2022-10-29T00:46:44.572Z,31.45
2022-10-29T00:49:12.554Z,31.05
2022-10-29T00:51:39.922Z,30.67
2022-10-29T00:54:09.474Z,29.10
2022-10-29T00:56:43.406Z,31.02
2022-10-29T00:59:10.754Z,29.77
2022-10-29T01:01:39.104Z,30.17
2022-10-29T01:04:06.855Z,30.65
2022-10-29T01:06:34.353Z,29.27
2022-10-29T01:09:01.936Z,29.08
2022-10-29T01:11:37.023Z,27.77
2022-10-29T01:14:30.852Z,26.12
2022-10-29T01:17:17.890Z,25.75
2022-10-29T01:20:12.626Z,25.35
2022-10-29T01:22:46.483Z,25.60
2022-10-29T01:25:19.992Z,23.95
2022-10-29T01:28:06.659Z,25.35
2022-10-29T01:31:00.333Z,24.77
2022-10-29T01:33:31.202Z,22.85
2022-10-29T01:36:07.918Z,21.23
2022-10-29T01:39:09.505Z,21.08
2022-10-29T01:42:02.782Z,20.62
2022-10-29T01:44:38.080Z,21.75
2022-10-29T01:47:29.053Z,21.48
2022-10-29T01:50:01.994Z,20.35
2022-10-29T01:52:32.559Z,20.90
2022-10-29T01:54:59.880Z,21.65
2022-10-29T01:57:34.870Z,21.58
2022-10-29T02:00:06.910Z,23.02
2022-10-29T02:02:57.868Z,22.85
2022-10-29T02:05:40.016Z,23.05
2022-10-29T02:08:07.162Z,22.20
2022-10-29T02:10:48.556Z,20.55
2022-10-29T02:13:17.638Z,21.80
2022-10-29T02:15:48.388Z,22.70
2022-10-29T02:18:16.422Z,21.30
2022-10-29T02:20:45.293Z,21.35
2022-10-29T02:23:13.539Z,20.17
2022-10-29T02:25:40.940Z,19.95
2022-10-29T02:28:08.751Z,20.12
2022-10-29T02:30:36.466Z,20.52
2022-10-29T02:33:03.835Z,21.95
2022-10-29T02:35:31.162Z,22.90
2022-10-29T02:37:58.767Z,22.48
2022-10-29T02:40:26.081Z,21.83
2022-10-29T02:42:53.562Z,24.25
2022-10-29T02:45:21.294Z,23.25
2022-10-29T02:47:48.609Z,24.52
2022-10-29T02:50:16.041Z,24.05
2022-10-29T02:52:43.620Z,24.60
2022-10-29T02:55:10.971Z,24.37
2022-10-29T02:57:38.908Z,25.90
2022-10-29T03:00:06.950Z,24.55
2022-10-29T03:02:34.396Z,22.80
2022-10-29T03:05:01.898Z,26.35
2022-10-29T03:07:29.504Z,24.30
2022-10-29T03:09:56.815Z,25.25
2022-10-29T03:12:24.108Z,24.58
2022-10-29T03:14:51.683Z,23.85
2022-10-29T03:17:18.983Z,26.58
2022-10-29T03:19:46.316Z,24.73
2022-10-29T03:22:13.987Z,24.45
2022-10-29T03:24:41.368Z,25.33
2022-10-29T03:27:08.684Z,25.15
2022-10-29T03:29:36.254Z,25.17
2022-10-29T03:32:03.613Z,23.20
2022-10-29T03:34:30.926Z,22.55
2022-10-29T03:36:58.483Z,23.67
2022-10-29T03:39:26.012Z,21.23
2022-10-29T03:41:53.538Z,22.40
2022-10-29T03:44:21.107Z,21.50
2022-10-29T03:46:48.407Z,19.23
2022-10-29T03:49:15.746Z,19.48
2022-10-29T03:51:43.358Z,19.65
2022-10-29T03:54:10.679Z,17.67
2022-10-29T03:56:37.996Z,19.98
2022-10-29T03:59:05.632Z,19.05
2022-10-29T04:01:33.312Z,18.40
2022-10-29T04:04:00.998Z,20.62
2022-10-29T04:06:28.472Z,19.23
2022-10-29T04:08:55.827Z,20.37
2022-10-29T04:11:23.412Z,20.95
2022-10-29T04:13:53.799Z,20.25
2022-10-29T04:16:21.118Z,21.20
2022-10-29T04:18:49.434Z,21.48
2022-10-29T04:28:03.083Z,19.70
2022-10-29T04:29:40.596Z,20.65
2022-10-29T04:32:07.906Z,19.30
2022-10-29T04:34:35.218Z,19.40
2022-10-29T04:37:02.797Z,17.77
2022-10-29T04:39:30.101Z,17.70
2022-10-29T04:41:57.386Z,18.08
2022-10-29T04:44:24.978Z,17.85
2022-10-29T04:46:52.303Z,20.70
2022-10-29T04:49:19.757Z,21.00
2022-10-29T04:51:47.427Z,20.25
2022-10-29T04:54:15.566Z,24.37
2022-10-29T04:56:42.916Z,24.40
2022-10-29T04:59:10.520Z,25.08
2022-10-29T05:01:37.870Z,24.25
2022-10-29T05:04:05.334Z,26.30
2022-10-29T05:06:32.905Z,25.17
2022-10-29T05:09:00.256Z,26.45
2022-10-29T05:11:27.589Z,22.65
2022-10-29T05:13:55.162Z,24.85
2022-10-29T05:16:22.452Z,23.83
2022-10-29T05:18:49.740Z,22.90
2022-10-29T05:21:17.342Z,21.70
2022-10-29T05:23:44.669Z,22.67
2022-10-29T05:26:11.961Z,22.00
2022-10-29T05:28:39.637Z,18.92
2022-10-29T05:31:07.313Z,22.13
2022-10-29T05:33:34.698Z,23.23
2022-10-29T05:36:02.262Z,20.62
2022-10-29T05:38:29.569Z,21.60
2022-10-29T05:40:59.732Z,20.50
2022-10-29T05:43:27.543Z,20.70
2022-10-29T05:45:54.853Z,18.70
2022-10-29T05:48:22.169Z,19.10
2022-10-29T05:50:49.762Z,16.90
2022-10-29T05:53:17.061Z,16.83
2022-10-29T05:55:44.397Z,16.83
2022-10-29T05:58:13.684Z,18.15
2022-10-29T06:00:43.287Z,16.23
2022-10-29T06:03:19.206Z,15.85
2022-10-29T06:05:47.725Z,16.15
2022-10-29T06:08:15.806Z,16.98
2022-10-29T06:10:43.273Z,15.88
2022-10-29T06:13:12.308Z,15.65
2022-10-29T06:15:40.143Z,18.17
2022-10-29T06:18:07.744Z,16.87
2022-10-29T06:20:36.223Z,16.37
2022-10-29T06:23:04.245Z,16.20
2022-10-29T06:25:32.018Z,15.68
2022-10-29T06:28:03.570Z,15.43
2022-10-29T06:30:32.619Z,16.23
2022-10-29T06:33:00.454Z,16.48
2022-10-29T06:35:28.354Z,14.93
2022-10-29T06:37:56.656Z,16.45
2022-10-29T06:40:24.480Z,16.23
2022-10-29T06:43:01.785Z,15.13
2022-10-29T06:45:30.075Z,15.63
2022-10-29T06:47:57.820Z,16.12
2022-10-29T06:50:26.112Z,15.48
2022-10-29T06:53:01.947Z,15.75
2022-10-29T06:55:29.606Z,15.30
2022-10-29T06:57:59.025Z,15.93
2022-10-29T07:00:27.025Z,16.85
2022-10-29T07:02:54.761Z,16.30
2022-10-29T07:05:23.082Z,17.52
2022-10-29T07:07:55.577Z,18.40
2022-10-29T07:10:23.479Z,19.20
2022-10-29T07:12:50.847Z,20.35
2022-10-29T07:15:18.623Z,18.27
2022-10-29T07:18:05.943Z,18.80
2022-10-29T07:20:36.245Z,19.58
2022-10-29T07:23:03.887Z,20.77
2022-10-29T07:25:32.303Z,18.73
2022-10-29T07:28:08.365Z,21.25
2022-10-29T07:30:36.209Z,20.48
2022-10-29T07:33:03.757Z,19.75
2022-10-29T07:35:31.073Z,21.23
2022-10-29T07:38:05.112Z,21.05
2022-10-29T07:40:45.904Z,22.25
2022-10-29T07:43:13.466Z,21.67
2022-10-29T07:45:42.193Z,21.15
2022-10-29T07:48:09.566Z,21.67
2022-10-29T07:50:38.263Z,21.12
2022-10-29T07:53:06.991Z,21.23
2022-10-29T07:55:34.546Z,21.25
2022-10-29T07:58:04.460Z,22.73
2022-10-29T08:00:33.819Z,23.50
2022-10-29T08:03:01.606Z,23.55
2022-10-29T08:05:30.773Z,24.48
2022-10-29T08:07:58.821Z,24.70
2022-10-29T08:10:26.805Z,25.15
2022-10-29T08:12:59.535Z,24.70
2022-10-29T08:15:28.919Z,27.95
2022-10-29T08:17:56.686Z,27.37
2022-10-29T08:20:25.748Z,25.90
2022-10-29T08:22:53.498Z,28.38
2022-10-29T08:25:21.437Z,26.40
2022-10-29T08:28:01.818Z,28.15
2022-10-29T08:30:30.311Z,26.70
2022-10-29T08:32:58.087Z,26.52
2022-10-29T08:35:25.822Z,28.80
2022-10-29T08:37:53.622Z,29.52
2022-10-29T08:40:29.713Z,28.10
2022-10-29T08:43:12.535Z,29.73
2022-10-29T08:45:46.762Z,26.17
2022-10-29T08:48:25.290Z,27.65
2022-10-29T08:51:23.023Z,27.08
2022-10-29T08:54:10.320Z,24.92
2022-10-29T08:56:44.399Z,26.00
2022-10-29T08:59:18.015Z,24.63
2022-10-29T09:01:45.799Z,25.48
2022-10-29T09:04:25.649Z,27.08
2022-10-29T09:07:18.644Z,26.50
2022-10-29T09:10:03.619Z,28.45
2022-10-29T09:12:45.794Z,29.08
2022-10-29T09:17:56.037Z,25.55
2022-10-29T09:20:48.679Z,26.37
2022-10-29T09:23:18.596Z,24.42
2022-10-29T09:25:55.483Z,24.08
2022-10-29T09:28:54.270Z,24.25
2022-10-29T09:31:33.993Z,22.95
2022-10-29T09:34:12.076Z,23.20
2022-10-29T09:36:40.235Z,21.58
2022-10-29T09:39:13.986Z,21.73
2022-10-29T09:41:41.547Z,22.98
2022-10-29T09:44:37.183Z,30.40
2022-10-29T09:47:43.874Z,26.98
2022-10-29T09:50:15.094Z,22.60
2022-10-29T09:52:44.028Z,22.42
2022-10-29T09:55:18.898Z,23.42
2022-10-29T09:57:47.033Z,26.42
2022-10-29T10:00:28.174Z,26.45
2022-10-29T10:03:08.269Z,25.50
2022-10-29T10:05:37.210Z,27.90
2022-10-29T10:08:09.598Z,27.37
2022-10-29T10:10:49.942Z,26.90
2022-10-29T10:13:19.744Z,25.77
2022-10-29T10:15:52.015Z,24.75
2022-10-29T10:18:22.107Z,26.15
2022-10-29T10:21:06.494Z,27.27
2022-10-29T10:23:42.678Z,27.33
2022-10-29T10:26:39.305Z,28.20
2022-10-29T10:29:14.593Z,27.77
2022-10-29T10:31:54.950Z,24.23
2022-10-29T10:34:23.689Z,22.58
2022-10-29T10:36:55.820Z,22.87
2022-10-29T10:39:31.082Z,22.83
2022-10-29T10:42:00.955Z,22.90
2022-10-29T10:44:28.627Z,24.55
2022-10-29T10:46:59.696Z,23.67
2022-10-29T10:49:32.106Z,22.45
2022-10-29T10:52:03.413Z,24.17
2022-10-29T10:54:39.691Z,26.52
2022-10-29T10:57:10.203Z,26.25
2022-10-29T10:59:47.245Z,26.05
2022-10-29T11:02:29.541Z,28.35
2022-10-29T11:05:07.938Z,29.10
2022-10-29T11:07:37.294Z,27.83
2022-10-29T11:10:06.786Z,30.35
2022-10-29T11:12:43.117Z,30.70
2022-10-29T11:15:10.734Z,30.42
2022-10-29T11:17:54.466Z,30.70
2022-10-29T11:20:28.094Z,29.48
2022-10-29T11:23:14.216Z,29.90
2022-10-29T11:25:47.189Z,29.83
2022-10-29T11:28:33.377Z,30.70
2022-10-29T11:31:09.463Z,31.10
2022-10-29T11:34:35.664Z,27.20
2022-10-29T11:37:30.200Z,27.55
2022-10-29T11:40:01.698Z,26.62
2022-10-29T11:42:29.691Z,26.70
2022-10-29T11:44:58.983Z,25.98
2022-10-29T11:47:50.443Z,27.60
2022-10-29T11:50:50.128Z,28.40
2022-10-29T11:53:32.633Z,29.27
2022-10-29T11:56:09.954Z,28.95
2022-10-29T11:58:54.544Z,31.27
2022-10-29T12:01:39.071Z,22.45
2022-10-29T12:04:28.584Z,29.00
2022-10-29T12:07:02.543Z,28.42
2022-10-29T12:10:02.342Z,27.08
2022-10-29T12:12:31.228Z,27.15
2022-10-29T12:15:09.168Z,24.12
2022-10-29T12:17:52.000Z,25.48
2022-10-29T12:20:52.049Z,27.02
2022-10-29T12:23:26.790Z,25.92
2022-10-29T12:26:09.069Z,24.25
2022-10-29T12:29:01.351Z,25.62
2022-10-29T12:31:34.952Z,28.50
2022-10-29T12:34:17.025Z,25.90
2022-10-29T12:36:53.308Z,25.30
2022-10-29T12:39:30.274Z,23.23
2022-10-29T12:42:06.076Z,22.37
2022-10-29T12:44:51.640Z,21.08
2022-10-29T12:47:38.988Z,22.67
2022-10-29T12:50:16.991Z,22.65
2022-10-29T12:52:46.003Z,34.08
2022-10-29T12:55:15.406Z,30.37
2022-10-29T12:57:42.754Z,28.10
2022-10-29T13:00:25.549Z,28.67
2022-10-29T13:02:54.451Z,25.85
2022-10-29T13:05:34.217Z,25.00
2022-10-29T13:08:01.651Z,25.05
2022-10-29T13:10:35.408Z,23.70
2022-10-29T13:13:07.382Z,23.67
2022-10-29T13:18:29.103Z,22.17
2022-10-29T13:20:56.695Z,24.70
2022-10-29T13:23:23.883Z,25.77
2022-10-29T13:25:58.509Z,23.65
2022-10-29T13:28:25.945Z,23.52
2022-10-29T13:30:59.449Z,25.95
2022-10-29T13:33:26.874Z,28.58
2022-10-29T13:36:03.872Z,27.08
2022-10-29T13:39:04.269Z,23.23
2022-10-29T13:41:44.120Z,24.92
2022-10-29T13:44:19.882Z,20.00
2022-10-29T13:47:00.936Z,21.67
2022-10-29T13:49:41.285Z,21.62
2022-10-29T13:52:15.573Z,20.98
2022-10-29T13:54:58.885Z,19.55
2022-10-29T13:57:38.831Z,20.23
2022-10-29T14:00:06.671Z,20.58
2022-10-29T14:03:15.463Z,18.55
2022-10-29T14:05:46.809Z,18.58
2022-10-29T14:08:21.324Z,18.08
2022-10-29T14:10:51.826Z,17.80
2022-10-29T14:13:34.598Z,18.23
2022-10-29T14:16:09.091Z,19.70
2022-10-29T14:18:38.963Z,20.70
2022-10-29T14:21:18.363Z,19.62
2022-10-29T14:24:00.708Z,20.05
2022-10-29T14:26:30.382Z,19.50
2022-10-29T14:29:22.553Z,19.70
2022-10-29T14:32:18.527Z,19.20
2022-10-29T14:34:50.138Z,20.08
2022-10-29T14:37:37.943Z,19.63
2022-10-29T14:40:15.628Z,19.42
2022-10-29T14:42:45.096Z,19.40
2022-10-29T14:45:28.392Z,18.55
2022-10-29T14:47:57.639Z,18.95
2022-10-29T14:50:27.456Z,20.90
2022-10-29T14:53:00.091Z,21.75
2022-10-29T14:55:31.903Z,22.58
2022-10-29T14:58:06.173Z,21.67
2022-10-29T15:00:36.976Z,21.15
2022-10-29T15:03:06.074Z,19.83
2022-10-29T15:05:36.105Z,22.67
2022-10-29T15:08:29.346Z,21.90
2022-10-29T15:10:58.198Z,21.58
2022-10-29T15:13:29.199Z,20.92
2022-10-29T15:15:59.414Z,19.45
2022-10-29T15:18:26.930Z,21.10
2022-10-29T15:20:55.236Z,22.17
2022-10-29T15:23:22.698Z,23.08
2022-10-29T15:25:52.267Z,23.95
2022-10-29T15:28:24.250Z,24.90
2022-10-29T15:33:21.800Z,24.00
2022-10-29T15:35:54.021Z,23.80
2022-10-29T15:38:52.097Z,26.33
2022-10-29T15:41:19.947Z,31.37
2022-10-29T15:43:55.615Z,29.95
2022-10-29T15:46:45.305Z,30.02
2022-10-29T15:49:16.037Z,33.00
2022-10-29T15:51:43.380Z,23.45
2022-10-29T15:54:13.922Z,27.40
2022-10-29T15:56:41.736Z,28.15
2022-10-29T15:59:15.779Z,26.83
2022-10-29T16:01:43.500Z,27.95
2022-10-29T16:04:11.161Z,27.33
2022-10-29T16:06:38.504Z,28.42
2022-10-29T16:09:05.869Z,30.17
2022-10-29T16:11:34.425Z,29.08
2022-10-29T16:14:01.757Z,28.67
2022-10-29T16:16:30.658Z,29.17
2022-10-29T16:18:58.231Z,31.30
2022-10-29T16:21:25.888Z,30.27
2022-10-29T16:23:53.466Z,27.15
2022-10-29T16:26:24.944Z,28.38
2022-10-29T16:28:55.166Z,29.30
2022-10-29T16:31:25.487Z,31.30
2022-10-29T16:33:59.887Z,30.12
2022-10-29T16:36:27.465Z,29.80
2022-10-29T16:38:54.772Z,31.77
2022-10-29T16:41:22.345Z,31.40
2022-10-29T16:43:49.909Z,30.88
2022-10-29T16:46:17.302Z,32.00
2022-10-29T16:48:45.573Z,31.55
2022-10-29T16:51:13.347Z,37.03
2022-10-29T16:53:40.662Z,34.70
2022-10-29T16:56:08.127Z,40.20
2022-10-29T16:58:35.724Z,37.15
2022-10-29T17:01:08.867Z,35.75
2022-10-29T17:03:38.973Z,34.83
2022-10-29T17:06:08.167Z,39.13
2022-10-29T17:08:36.702Z,35.45
2022-10-29T17:11:06.336Z,36.95
2022-10-29T17:13:34.311Z,39.65
2022-10-29T17:16:12.537Z,35.97
2022-10-29T17:18:40.914Z,33.10
2022-10-29T17:21:08.260Z,33.05
2022-10-29T17:23:35.661Z,33.25
2022-10-29T17:26:03.320Z,35.70
2022-10-29T17:28:30.635Z,34.25
2022-10-29T17:30:57.949Z,36.35
2022-10-29T17:33:25.513Z,35.13
2022-10-29T17:36:03.168Z,34.05
2022-10-29T17:38:30.766Z,31.42
2022-10-29T17:40:58.242Z,32.60
2022-10-29T17:43:25.586Z,33.83
2022-10-29T17:45:53.250Z,34.38
2022-10-29T17:48:24.013Z,35.20
2022-10-29T17:53:24.628Z,31.58
2022-10-29T17:55:52.095Z,31.48
2022-10-29T17:58:20.329Z,31.00
2022-10-29T18:00:48.595Z,32.78
2022-10-29T18:03:16.356Z,31.92
2022-10-29T18:05:43.996Z,30.80
2022-10-29T18:08:11.344Z,32.55
2022-10-29T18:10:38.937Z,30.95
2022-10-29T18:13:06.245Z,31.45
2022-10-29T18:15:33.552Z,31.40
2022-10-29T18:18:01.160Z,31.08
2022-10-29T18:20:28.493Z,31.83
2022-10-29T18:22:56.532Z,31.17
2022-10-29T18:25:24.146Z,34.10
2022-10-29T18:27:55.468Z,33.63
2022-10-29T18:30:22.862Z,34.23
2022-10-29T18:32:50.506Z,34.28
2022-10-29T18:35:17.855Z,34.50
2022-10-29T18:37:46.564Z,33.25
2022-10-29T18:40:14.215Z,31.75
2022-10-29T18:42:41.546Z,31.77
2022-10-29T18:45:09.706Z,28.20
2022-10-29T18:47:37.294Z,30.02
2022-10-29T18:50:05.252Z,28.90
2022-10-29T18:52:32.516Z,31.92
2022-10-29T18:55:00.148Z,30.02
2022-10-29T18:57:27.556Z,28.98
2022-10-29T18:59:54.846Z,30.77
2022-10-29T19:02:22.540Z,31.98
2022-10-29T19:04:49.880Z,31.83
2022-10-29T19:07:17.230Z,31.55
2022-10-29T19:09:44.890Z,31.05
2022-10-29T19:12:13.071Z,31.65
2022-10-29T19:14:40.625Z,32.58
2022-10-29T19:17:08.252Z,32.88
2022-10-29T19:19:35.583Z,35.55
2022-10-29T19:22:02.895Z,35.53
2022-10-29T19:24:30.489Z,35.55
2022-10-29T19:26:57.801Z,35.55
2022-10-29T19:29:25.188Z,36.05
2022-10-29T19:31:52.755Z,34.30
2022-10-29T19:34:20.068Z,33.33
2022-10-29T19:36:47.367Z,36.65
2022-10-29T19:39:14.942Z,37.03
2022-10-29T19:41:42.339Z,36.35
2022-10-29T19:44:09.699Z,34.72
2022-10-29T19:46:37.319Z,34.75
2022-10-29T19:49:04.675Z,35.35
2022-10-29T19:51:31.996Z,35.30
2022-10-29T19:54:01.920Z,35.28
2022-10-29T19:56:29.303Z,36.22
2022-10-29T19:58:56.641Z,34.60
2022-10-29T20:01:24.319Z,32.70
2022-10-29T20:03:52.066Z,33.92
2022-10-29T20:06:19.589Z,33.25
2022-10-29T20:08:46.914Z,29.73
2022-10-29T20:11:14.513Z,34.13
2022-10-29T20:13:42.184Z,32.22
2022-10-29T20:16:17.121Z,37.47
2022-10-29T20:18:44.907Z,39.85
2022-10-29T20:21:13.612Z,41.20
2022-10-29T20:23:40.955Z,42.83
2022-10-29T20:26:08.769Z,43.92
2022-10-29T20:28:36.074Z,45.97
2022-10-29T20:31:19.147Z,47.03
2022-10-29T20:33:51.291Z,43.08
2022-10-29T20:36:18.676Z,43.47
2022-10-29T20:38:49.897Z,33.20
2022-10-29T20:41:18.052Z,40.67
2022-10-29T20:43:46.079Z,41.30
2022-10-29T20:46:13.390Z,42.20
2022-10-29T20:48:40.963Z,42.50
2022-10-29T20:51:08.548Z,41.40
2022-10-29T20:53:35.843Z,40.33
2022-10-29T20:56:03.521Z,39.47
2022-10-29T20:58:30.819Z,42.42
2022-10-29T21:01:19.388Z,42.45
2022-10-29T21:03:48.368Z,53.58
2022-10-29T21:06:17.520Z,58.55
2022-10-29T21:08:46.335Z,52.83
2022-10-29T21:11:15.505Z,52.67
2022-10-29T21:13:42.875Z,50.17
2022-10-29T21:16:23.948Z,47.10
2022-10-29T21:18:53.962Z,45.80
2022-10-29T21:21:21.304Z,40.70
2022-10-29T21:23:48.680Z,41.55
2022-10-29T21:26:18.910Z,39.17
2022-10-29T21:28:47.919Z,40.22
2022-10-29T21:31:15.698Z,40.40
2022-10-29T21:33:43.318Z,42.33
2022-10-29T21:36:16.295Z,40.10
2022-10-29T21:38:43.963Z,42.17
2022-10-29T21:41:11.501Z,40.53
2022-10-29T21:43:39.258Z,41.13
2022-10-29T21:46:07.295Z,39.90
2022-10-29T21:48:34.656Z,40.35
2022-10-29T21:51:07.077Z,41.45
2022-10-29T21:53:34.742Z,40.88
2022-10-29T21:56:04.539Z,42.85
2022-10-29T21:58:32.384Z,40.12
2022-10-29T22:01:14.761Z,40.83
2022-10-29T22:06:19.266Z,40.70
2022-10-29T22:08:47.952Z,39.70
2022-10-29T22:11:16.947Z,38.35
2022-10-29T22:13:44.369Z,39.53
2022-10-29T22:16:12.113Z,40.15
2022-10-29T22:18:39.801Z,39.45
2022-10-29T22:21:15.999Z,40.00
2022-10-29T22:23:50.993Z,39.30
2022-10-29T22:26:21.445Z,38.47
2022-10-29T22:28:49.972Z,37.40
2022-10-29T22:31:18.663Z,36.90
2022-10-29T22:33:46.313Z,38.42
2022-10-29T22:36:19.284Z,37.58
2022-10-29T22:38:47.063Z,37.88
2022-10-29T22:41:16.706Z,38.53
2022-10-29T22:43:44.567Z,38.38
2022-10-29T22:46:13.513Z,39.05
2022-10-29T22:48:41.276Z,40.08
2022-10-29T22:51:18.404Z,38.47
2022-10-29T22:53:46.156Z,38.03
2022-10-29T22:56:15.692Z,37.58
2022-10-29T22:58:43.245Z,35.13
2022-10-29T23:01:13.583Z,34.15
2022-10-29T23:03:41.560Z,35.40
2022-10-29T23:06:11.629Z,34.95
2022-10-29T23:08:39.276Z,34.33
2022-10-29T23:11:20.909Z,34.35
2022-10-29T23:13:50.254Z,33.65
2022-10-29T23:16:17.783Z,33.88
2022-10-29T23:18:52.938Z,34.47
2022-10-29T23:21:20.780Z,34.13
2022-10-29T23:23:51.241Z,34.60
2022-10-29T23:26:19.262Z,36.83
2022-10-29T23:28:47.304Z,36.45
2022-10-29T23:31:16.599Z,36.10
2022-10-29T23:33:49.465Z,36.70
2022-10-29T23:36:18.431Z,37.08
2022-10-29T23:38:45.803Z,35.50
2022-10-29T23:41:13.472Z,36.60
2022-10-29T23:43:41.046Z,35.22
2022-10-29T23:46:08.382Z,36.72
2022-10-29T23:48:35.924Z,38.00
2022-10-29T23:51:03.600Z,37.92
2022-10-29T23:53:30.967Z,37.50
2022-10-29T23:55:58.304Z,36.67
2022-10-29T23:58:25.893Z,37.33
